| time (UTC) | temp F | wind direction | speed knots | gust knots | rain 1hr in | rain 24hr in | rain mn in | humidity % | barometer mb |
| 20260502180503 | 57 | 256 | 7.0 | 13.0 | 0.00 | 0.00 | 0.00 | 45 | 1008.0 |
| 20260502170503 | 57 | 213 | 4.3 | 7.0 | 0.00 | 0.00 | 0.00 | 45 | 1008.8 |
| 20260502170216 | 56 | 225 | 4.3 | 7.8 | 0.00 | 0.00 | 0.00 | 49 | 1008.9 |
| 20260502164003 | 55 | 257 | 6.1 | 10.4 | 0.00 | 0.00 | 0.00 | 49 | 1009.1 |
| 20260502163503 | 55 | 247 | 7.0 | 10.4 | 0.00 | 0.00 | 0.00 | 52 | 1009.2 |
| 20260502163218 | 56 | 251 | 7.0 | 11.3 | 0.00 | 0.00 | 0.00 | 48 | 1009.2 |
| 20260502162503 | 56 | 273 | 7.0 | 11.3 | 0.00 | 0.00 | 0.00 | 47 | 1009.4 |
| 20260502162003 | 56 | 271 | 7.8 | 13.9 | 0.00 | 0.00 | 0.00 | 46 | 1009.3 |
| 20260502161503 | 56 | 247 | 7.8 | 13.9 | 0.00 | 0.00 | 0.00 | 47 | 1009.3 |
| 20260502161003 | 55 | 225 | 5.2 | 11.3 | 0.00 | 0.00 | 0.00 | 48 | 1009.3 |
| 20260502160503 | 56 | 201 | 3.5 | 10.4 | 0.00 | 0.00 | 0.00 | 47 | 1009.4 |
| 20260502152216 | 52 | 198 | 7.0 | 11.3 | 0.00 | 0.00 | 0.00 | 53 | 1010.0 |
| 20260502151503 | 52 | 203 | 7.8 | 13.0 | 0.00 | 0.00 | 0.00 | 52 | 1010.1 |
| 20260502151003 | 51 | 205 | 7.8 | 13.0 | 0.00 | 0.00 | 0.00 | 51 | 1010.1 |
| 20260502150503 | 51 | 199 | 7.0 | 12.2 | 0.00 | 0.00 | 0.00 | 53 | 1010.2 |
| 20260502150215 | 51 | 195 | 7.0 | 12.2 | 0.00 | 0.00 | 0.00 | 55 | 1010.2 |
| 20260502130718 | 41 | 360 | 2.6 | 4.3 | 0.00 | 0.00 | 0.00 | 65 | 1012.1 |
| 20260502123503 | 39 | 360 | 2.6 | 3.5 | 0.00 | 0.00 | 0.00 | 64 | 1012.3 |
| 20260502123217 | 39 | 360 | 2.6 | 3.5 | 0.00 | 0.00 | 0.00 | 63 | 1012.4 |
| 20260502122503 | 39 | 360 | 2.6 | 3.5 | 0.00 | 0.00 | 0.00 | 64 | 1012.4 |
| 20260502122218 | 39 | 360 | 2.6 | 3.5 | 0.00 | 0.00 | 0.00 | 65 | 1012.5 |
| 20260502121716 | 38 | 360 | 1.7 | 3.5 | 0.00 | 0.00 | 0.00 | 63 | 1012.6 |
| 20260502121003 | 38 | 360 | 2.6 | 3.5 | 0.00 | 0.00 | 0.00 | 63 | 1012.7 |
| 20260502120503 | 38 | 360 | 2.6 | 3.5 | 0.00 | 0.00 | 0.00 | 64 | 1012.7 |
| 20260502115503 | 38 | 360 | 2.6 | 4.3 | 0.00 | 0.00 | 0.00 | 64 | 1012.8 |
| 20260502115003 | 38 | 360 | 1.7 | 3.5 | 0.00 | 0.00 | 0.00 | 66 | 1012.8 |
| 20260502114717 | 38 | 360 | 1.7 | 3.5 | 0.00 | 0.00 | 0.00 | 66 | 1012.8 |
| 20260502114003 | 37 | 360 | 1.7 | 3.5 | 0.00 | 0.00 | 0.00 | 67 | 1013.0 |
| 20260502113503 | 37 | 360 | 1.7 | 2.6 | 0.00 | 0.00 | 0.00 | 66 | 1013.0 |
| 20260502113003 | 36 | 360 | 1.7 | 2.6 | 0.00 | 0.00 | 0.00 | 66 | 1013.1 |
| 20260502112503 | 36 | 360 | 1.7 | 2.6 | 0.00 | 0.00 | 0.00 | 67 | 1013.1 |
| 20260502112218 | 36 | 360 | 1.7 | 2.6 | 0.00 | 0.00 | 0.00 | 68 | 1013.2 |
| 20260502111719 | 36 | 360 | 1.7 | 2.6 | 0.00 | 0.00 | 0.00 | 69 | 1013.2 |
| 20260502111003 | 35 | 360 | 1.7 | 2.6 | 0.00 | 0.00 | 0.00 | 70 | 1013.3 |
| 20260502110717 | 35 | 360 | 1.7 | 2.6 | 0.00 | 0.00 | 0.00 | 70 | 1013.3 |
| 20260502110218 | 35 | 360 | 1.7 | 1.7 | 0.00 | 0.00 | 0.00 | 71 | 1013.4 |
| 20260502105503 | 35 | 360 | 1.7 | 2.6 | 0.00 | 0.00 | 0.00 | 73 | 1013.5 |
| 20260502105003 | 35 | 360 | 1.7 | 2.6 | 0.00 | 0.00 | 0.00 | 73 | 1013.5 |
| 20260502104717 | 35 | 360 | 1.7 | 2.6 | 0.00 | 0.00 | 0.00 | 72 | 1013.5 |
| 20260502104003 | 35 | 360 | 1.7 | 2.6 | 0.00 | 0.00 | 0.00 | 71 | 1013.6 |
| 20260502103719 | 35 | 360 | 1.7 | 2.6 | 0.00 | 0.00 | 0.00 | 70 | 1013.6 |
| 20260502103003 | 35 | 360 | 1.7 | 2.6 | 0.00 | 0.00 | 0.00 | 71 | 1013.7 |
| 20260502102503 | 35 | 360 | 0.9 | 2.6 | 0.00 | 0.00 | 0.00 | 71 | 1013.7 |
| 20260502102003 | 35 | 360 | 0.9 | 2.6 | 0.00 | 0.00 | 0.00 | 70 | 1013.8 |
| 20260502101719 | 35 | 360 | 0.9 | 1.7 | 0.00 | 0.00 | 0.00 | 70 | 1013.9 |
| 20260502101003 | 35 | 360 | 1.7 | 2.6 | 0.00 | 0.00 | 0.00 | 70 | 1013.8 |
| 20260502100503 | 35 | 360 | 0.9 | 2.6 | 0.00 | 0.00 | 0.00 | 71 | 1014.0 |
| 20260502091503 | 34 | 360 | 0.9 | 1.7 | 0.00 | 0.00 | 0.00 | 74 | 1014.4 |
| 20260502091003 | 34 | 360 | 0.0 | 0.9 | 0.00 | 0.00 | 0.00 | 75 | 1014.4 |
| 20260502090503 | 34 | 0 | 0.0 | 0.0 | 0.00 | 0.00 | 0.00 | 76 | 1014.4 |
| 20260502071503 | 32 | 0 | 0.0 | 0.0 | 0.00 | 0.00 | 0.00 | 74 | 1015.2 |
| 20260502071003 | 32 | 0 | 0.0 | 0.0 | 0.00 | 0.00 | 0.00 | 76 | 1015.1 |
| 20260502070503 | 32 | 0 | 0.0 | 0.0 | 0.00 | 0.00 | 0.00 | 76 | 1015.2 |
| 20260502070003 | 32 | 0 | 0.0 | 0.0 | 0.00 | 0.00 | 0.00 | 76 | 1015.2 |
| 20260502065503 | 32 | 0 | 0.0 | 0.0 | 0.00 | 0.00 | 0.00 | 77 | 1015.2 |
| 20260502065003 | 32 | 0 | 0.0 | 0.0 | 0.00 | 0.00 | 0.00 | 77 | 1015.3 |
| 20260502064503 | 32 | 0 | 0.0 | 0.0 | 0.00 | 0.00 | 0.00 | 76 | 1015.3 |
| 20260502064003 | 32 | 0 | 0.0 | 0.0 | 0.00 | 0.00 | 0.00 | 76 | 1015.2 |
| 20260502063503 | 32 | 0 | 0.0 | 0.0 | 0.00 | 0.00 | 0.00 | 76 | 1015.2 |
| 20260502063219 | 32 | 0 | 0.0 | 0.0 | 0.00 | 0.00 | 0.00 | 75 | 1015.2 |
| 20260502062503 | 33 | 0 | 0.0 | 0.0 | 0.00 | 0.00 | 0.00 | 76 | 1015.3 |
| 20260502062003 | 33 | 0 | 0.0 | 0.0 | 0.00 | 0.00 | 0.00 | 77 | 1015.3 |
| 20260502061503 | 34 | 0 | 0.0 | 0.0 | 0.00 | 0.00 | 0.00 | 77 | 1015.3 |
| 20260502061003 | 34 | 0 | 0.0 | 0.0 | 0.00 | 0.00 | 0.00 | 77 | 1015.3 |
| 20260502060503 | 34 | 0 | 0.0 | 0.0 | 0.00 | 0.00 | 0.00 | 77 | 1015.3 |
| 20260502060003 | 34 | 0 | 0.0 | 0.0 | 0.00 | 0.00 | 0.00 | 76 | 1015.3 |
| 20260502055503 | 35 | 0 | 0.0 | 0.0 | 0.00 | 0.00 | 0.00 | 76 | 1015.3 |
| 20260502055003 | 35 | 0 | 0.0 | 0.0 | 0.00 | 0.00 | 0.00 | 75 | 1015.3 |
| 20260502054503 | 36 | 0 | 0.0 | 0.0 | 0.00 | 0.00 | 0.00 | 75 | 1015.4 |
| 20260502054216 | 36 | 0 | 0.0 | 0.0 | 0.00 | 0.00 | 0.00 | 75 | 1015.4 |
| 20260502053503 | 36 | 0 | 0.0 | 0.0 | 0.00 | 0.00 | 0.00 | 75 | 1015.4 |
| 20260502053003 | 36 | 0 | 0.0 | 0.0 | 0.00 | 0.00 | 0.00 | 74 | 1015.4 |
| 20260502052503 | 37 | 0 | 0.0 | 0.0 | 0.00 | 0.00 | 0.00 | 75 | 1015.4 |
| 20260502052003 | 37 | 0 | 0.0 | 0.0 | 0.00 | 0.00 | 0.00 | 76 | 1015.4 |
| 20260502051503 | 37 | 0 | 0.0 | 0.0 | 0.00 | 0.00 | 0.00 | 76 | 1015.5 |
| 20260502051003 | 38 | 0 | 0.0 | 0.0 | 0.00 | 0.00 | 0.00 | 76 | 1015.6 |
| 20260502050503 | 38 | 0 | 0.0 | 0.0 | 0.00 | 0.00 | 0.00 | 76 | 1015.5 |
| 20260502050003 | 38 | 0 | 0.0 | 0.0 | 0.00 | 0.00 | 0.00 | 76 | 1015.6 |
| 20260502045503 | 38 | 0 | 0.0 | 0.0 | 0.00 | 0.00 | 0.00 | 75 | 1015.6 |
| 20260502045003 | 38 | 0 | 0.0 | 0.0 | 0.00 | 0.00 | 0.00 | 75 | 1015.7 |
| 20260502044719 | 38 | 0 | 0.0 | 0.0 | 0.00 | 0.00 | 0.00 | 75 | 1015.7 |
| 20260502044216 | 39 | 0 | 0.0 | 0.0 | 0.00 | 0.00 | 0.00 | 75 | 1015.7 |
| 20260502043503 | 39 | 0 | 0.0 | 0.0 | 0.00 | 0.00 | 0.00 | 75 | 1015.8 |
| 20260502043003 | 39 | 0 | 0.0 | 0.0 | 0.00 | 0.00 | 0.00 | 74 | 1015.7 |
| 20260502042718 | 39 | 0 | 0.0 | 0.0 | 0.00 | 0.00 | 0.00 | 74 | 1015.8 |
| 20260502042003 | 40 | 0 | 0.0 | 0.0 | 0.00 | 0.00 | 0.00 | 73 | 1015.8 |
| 20260502041503 | 40 | 0 | 0.0 | 0.0 | 0.00 | 0.00 | 0.00 | 73 | 1015.8 |
| 20260502041003 | 40 | 0 | 0.0 | 0.0 | 0.00 | 0.00 | 0.00 | 72 | 1015.8 |
| 20260502040503 | 40 | 0 | 0.0 | 0.0 | 0.00 | 0.00 | 0.00 | 72 | 1015.8 |
| 20260502040215 | 40 | 0 | 0.0 | 0.0 | 0.00 | 0.00 | 0.00 | 71 | 1015.8 |
| 20260502035503 | 41 | 0 | 0.0 | 0.0 | 0.00 | 0.00 | 0.00 | 70 | 1015.8 |
| 20260502035003 | 41 | 0 | 0.0 | 0.0 | 0.00 | 0.00 | 0.00 | 69 | 1015.8 |
| 20260502034503 | 41 | 0 | 0.0 | 0.0 | 0.00 | 0.00 | 0.00 | 68 | 1015.8 |
| 20260502034003 | 42 | 0 | 0.0 | 0.0 | 0.00 | 0.00 | 0.00 | 68 | 1015.9 |
| 20260502033503 | 42 | 0 | 0.0 | 0.0 | 0.00 | 0.00 | 0.00 | 67 | 1015.8 |
| 20260502033003 | 42 | 0 | 0.0 | 0.0 | 0.00 | 0.00 | 0.00 | 64 | 1015.9 |
| 20260502032503 | 42 | 0 | 0.0 | 0.0 | 0.00 | 0.00 | 0.00 | 63 | 1015.8 |
| 20260502032003 | 43 | 0 | 0.0 | 0.0 | 0.00 | 0.00 | 0.00 | 63 | 1015.8 |
| 20260502031503 | 43 | 0 | 0.0 | 0.0 | 0.00 | 0.00 | 0.00 | 58 | 1015.9 |
| 20260502031003 | 44 | 0 | 0.0 | 0.0 | 0.00 | 0.00 | 0.00 | 57 | 1015.8 |
| 20260502030503 | 44 | 0 | 0.0 | 0.0 | 0.00 | 0.00 | 0.00 | 52 | 1015.9 |
| 20260502030003 | 44 | 0 | 0.0 | 0.0 | 0.00 | 0.00 | 0.00 | 49 | 1015.9 |
| 20260502025503 | 45 | 0 | 0.0 | 0.0 | 0.00 | 0.00 | 0.00 | 49 | 1015.8 |
| 20260502025217 | 45 | 0 | 0.0 | 0.0 | 0.00 | 0.00 | 0.00 | 48 | 1015.8 |
| 20260502024503 | 45 | 0 | 0.0 | 0.0 | 0.00 | 0.00 | 0.00 | 47 | 1015.9 |
| 20260502024003 | 46 | 0 | 0.0 | 0.0 | 0.00 | 0.00 | 0.00 | 49 | 1015.9 |
| 20260502023503 | 46 | 0 | 0.0 | 0.0 | 0.00 | 0.00 | 0.00 | 45 | 1015.9 |
| 20260502023003 | 46 | 0 | 0.0 | 0.0 | 0.00 | 0.00 | 0.00 | 45 | 1015.9 |
| 20260502022503 | 46 | 0 | 0.0 | 0.0 | 0.00 | 0.00 | 0.00 | 45 | 1015.8 |
| 20260502022003 | 47 | 0 | 0.0 | 0.0 | 0.00 | 0.00 | 0.00 | 44 | 1015.9 |
| 20260502021503 | 47 | 360 | 0.0 | 0.9 | 0.00 | 0.00 | 0.00 | 43 | 1015.9 |
| 20260502021003 | 48 | 360 | 0.9 | 1.7 | 0.00 | 0.00 | 0.00 | 44 | 1015.8 |
| 20260502020503 | 48 | 360 | 0.9 | 1.7 | 0.00 | 0.00 | 0.00 | 43 | 1015.8 |
| 20260502020003 | 48 | 360 | 0.9 | 2.6 | 0.00 | 0.00 | 0.00 | 42 | 1015.7 |
| 20260502015503 | 48 | 360 | 1.7 | 2.6 | 0.00 | 0.00 | 0.00 | 43 | 1015.8 |
| 20260502015003 | 48 | 360 | 1.7 | 2.6 | 0.00 | 0.00 | 0.00 | 44 | 1015.7 |
| 20260502014503 | 48 | 360 | 1.7 | 2.6 | 0.00 | 0.00 | 0.00 | 44 | 1015.7 |
| 20260502014003 | 48 | 360 | 1.7 | 3.5 | 0.00 | 0.00 | 0.00 | 45 | 1015.7 |
| 20260502013503 | 48 | 360 | 2.6 | 4.3 | 0.00 | 0.00 | 0.00 | 49 | 1015.7 |
| 20260502013003 | 49 | 360 | 3.5 | 4.3 | 0.00 | 0.00 | 0.00 | 52 | 1015.6 |
| 20260502012503 | 49 | 355 | 2.6 | 5.2 | 0.00 | 0.00 | 0.00 | 51 | 1015.6 |
| 20260502012003 | 49 | 304 | 3.5 | 6.1 | 0.00 | 0.00 | 0.00 | 51 | 1015.6 |
| 20260502011503 | 50 | 292 | 4.3 | 7.0 | 0.00 | 0.00 | 0.00 | 49 | 1015.6 |
| 20260502011003 | 50 | 309 | 4.3 | 7.0 | 0.00 | 0.00 | 0.00 | 46 | 1015.6 |
| 20260502010503 | 50 | 294 | 6.1 | 9.6 | 0.00 | 0.00 | 0.00 | 47 | 1015.5 |
| 20260502010003 | 50 | 287 | 7.0 | 9.6 | 0.00 | 0.00 | 0.00 | 47 | 1015.5 |
| 20260502005503 | 50 | 287 | 5.2 | 7.8 | 0.00 | 0.00 | 0.00 | 47 | 1015.6 |
| 20260502005003 | 50 | 278 | 5.2 | 7.8 | 0.00 | 0.00 | 0.00 | 48 | 1015.6 |
| 20260502004503 | 50 | 268 | 5.2 | 7.8 | 0.00 | 0.00 | 0.00 | 47 | 1015.6 |
| 20260502004003 | 50 | 268 | 6.1 | 8.7 | 0.00 | 0.00 | 0.00 | 47 | 1015.6 |
| 20260502003719 | 50 | 268 | 7.0 | 9.6 | 0.00 | 0.00 | 0.00 | 47 | 1015.6 |
| 20260502003003 | 51 | 276 | 7.0 | 9.6 | 0.00 | 0.00 | 0.00 | 46 | 1015.6 |
| 20260502002503 | 51 | 287 | 7.0 | 10.4 | 0.00 | 0.00 | 0.00 | 45 | 1015.6 |
| 20260502002003 | 51 | 288 | 8.7 | 11.3 | 0.00 | 0.00 | 0.00 | 45 | 1015.6 |
| 20260502001503 | 51 | 288 | 8.7 | 11.3 | 0.00 | 0.00 | 0.00 | 44 | 1015.5 |
| 20260502001003 | 51 | 286 | 7.8 | 9.6 | 0.00 | 0.00 | 0.00 | 48 | 1015.4 |
| 20260502000503 | 51 | 274 | 7.8 | 10.4 | 0.00 | 0.00 | 0.00 | 48 | 1015.4 |
| 20260502000003 | 51 | 269 | 7.0 | 10.4 | 0.00 | 0.00 | 0.00 | 48 | 1015.5 |
| 20260501235503 | 52 | 266 | 5.2 | 9.6 | 0.00 | 0.00 | 0.00 | 43 | 1015.5 |
| 20260501235003 | 52 | 257 | 4.3 | 9.6 | 0.00 | 0.00 | 0.00 | 43 | 1015.5 |
| 20260501234503 | 52 | 262 | 5.2 | 7.8 | 0.00 | 0.00 | 0.00 | 38 | 1015.6 |
| 20260501234218 | 52 | 263 | 4.3 | 7.8 | 0.00 | 0.00 | 0.00 | 44 | 1015.6 |
| 20260501233503 | 52 | 284 | 4.3 | 7.0 | 0.00 | 0.00 | 0.00 | 44 | 1015.6 |
| 20260501233003 | 52 | 288 | 4.3 | 7.0 | 0.00 | 0.00 | 0.00 | 42 | 1015.7 |
| 20260501232503 | 53 | 297 | 3.5 | 8.7 | 0.00 | 0.00 | 0.00 | 39 | 1015.7 |
| 20260501232003 | 54 | 298 | 2.6 | 8.7 | 0.00 | 0.00 | 0.00 | 36 | 1015.6 |
| 20260501231503 | 54 | 283 | 1.7 | 3.5 | 0.00 | 0.00 | 0.00 | 34 | 1015.6 |
| 20260501231003 | 54 | 298 | 2.6 | 8.7 | 0.00 | 0.00 | 0.00 | 35 | 1015.6 |
| 20260501230503 | 54 | 309 | 2.6 | 8.7 | 0.00 | 0.00 | 0.00 | 34 | 1015.6 |
| 20260501230003 | 54 | 323 | 2.6 | 7.8 | 0.00 | 0.00 | 0.00 | 34 | 1015.6 |
| 20260501225503 | 54 | 320 | 2.6 | 7.8 | 0.00 | 0.00 | 0.00 | 39 | 1015.6 |
| 20260501225003 | 52 | 317 | 2.6 | 7.0 | 0.00 | 0.00 | 0.00 | 41 | 1015.6 |
| 20260501224503 | 52 | 321 | 2.6 | 7.0 | 0.00 | 0.00 | 0.00 | 38 | 1015.6 |
| 20260501224003 | 52 | 321 | 4.3 | 7.8 | 0.00 | 0.00 | 0.00 | 38 | 1015.7 |
| 20260501223503 | 52 | 318 | 5.2 | 11.3 | 0.00 | 0.00 | 0.00 | 41 | 1015.7 |
| 20260501223215 | 52 | 313 | 6.1 | 11.3 | 0.00 | 0.00 | 0.00 | 40 | 1015.6 |
| 20260501222503 | 52 | 293 | 5.2 | 11.3 | 0.00 | 0.00 | 0.00 | 38 | 1015.6 |
| 20260501222003 | 53 | 282 | 2.6 | 11.3 | 0.00 | 0.00 | 0.00 | 36 | 1015.6 |
| 20260501221503 | 52 | 282 | 2.6 | 6.1 | 0.00 | 0.00 | 0.00 | 41 | 1015.6 |
| 20260501221003 | 52 | 283 | 4.3 | 7.8 | 0.00 | 0.00 | 0.00 | 41 | 1015.7 |
| 20260501220503 | 51 | 271 | 6.1 | 9.6 | 0.00 | 0.00 | 0.00 | 40 | 1015.8 |
| 20260501220003 | 51 | 267 | 7.0 | 10.4 | 0.00 | 0.00 | 0.00 | 42 | 1015.7 |
| 20260501215503 | 51 | 276 | 7.0 | 10.4 | 0.00 | 0.00 | 0.00 | 42 | 1015.8 |
| 20260501215003 | 51 | 291 | 5.2 | 8.7 | 0.00 | 0.00 | 0.00 | 40 | 1015.9 |
| 20260501214503 | 52 | 301 | 6.1 | 11.3 | 0.00 | 0.00 | 0.00 | 46 | 1015.9 |
| 20260501214217 | 52 | 303 | 6.1 | 11.3 | 0.00 | 0.00 | 0.00 | 39 | 1015.9 |
| 20260501213503 | 53 | 305 | 3.5 | 11.3 | 0.00 | 0.00 | 0.00 | 38 | 1015.9 |
| 20260501213003 | 55 | 330 | 2.6 | 9.6 | 0.00 | 0.00 | 0.00 | 37 | 1016.0 |
| 20260501212503 | 54 | 303 | 5.2 | 9.6 | 0.00 | 0.00 | 0.00 | 36 | 1015.9 |
| 20260501212003 | 52 | 291 | 4.3 | 9.6 | 0.00 | 0.00 | 0.00 | 41 | 1016.0 |
| 20260501211503 | 54 | 286 | 1.7 | 7.0 | 0.00 | 0.00 | 0.00 | 34 | 1016.0 |
| 20260501211003 | 52 | 259 | 0.9 | 5.2 | 0.00 | 0.00 | 0.00 | 39 | 1016.1 |
| 20260501210503 | 50 | 272 | 1.7 | 5.2 | 0.00 | 0.00 | 0.00 | 38 | 1016.2 |
| 20260501210217 | 50 | 286 | 2.6 | 5.2 | 0.00 | 0.00 | 0.00 | 40 | 1016.2 |
| 20260501205718 | 51 | 320 | 2.6 | 5.2 | 0.00 | 0.00 | 0.00 | 42 | 1016.3 |
| 20260501205003 | 51 | 310 | 2.6 | 7.0 | 0.00 | 0.00 | 0.00 | 41 | 1016.4 |
| 20260501204503 | 51 | 296 | 2.6 | 7.0 | 0.00 | 0.00 | 0.00 | 37 | 1016.4 |
| 20260501204003 | 51 | 313 | 2.6 | 6.1 | 0.00 | 0.00 | 0.00 | 40 | 1016.4 |
| 20260501203718 | 51 | 336 | 2.6 | 8.7 | 0.00 | 0.00 | 0.00 | 41 | 1016.4 |
| 20260501203003 | 48 | 319 | 3.5 | 8.7 | 0.00 | 0.00 | 0.00 | 46 | 1016.5 |
| 20260501202716 | 48 | 284 | 4.3 | 8.7 | 0.00 | 0.00 | 0.00 | 53 | 1016.4 |
| 20260501202003 | 50 | 269 | 6.1 | 12.2 | 0.00 | 0.00 | 0.00 | 49 | 1016.4 |
| 20260501201503 | 50 | 247 | 6.1 | 12.2 | 0.00 | 0.00 | 0.00 | 39 | 1016.4 |
| 20260501201003 | 50 | 231 | 5.2 | 10.4 | 0.00 | 0.00 | 0.00 | 40 | 1016.4 |
| 20260501200715 | 50 | 239 | 5.2 | 10.4 | 0.00 | 0.00 | 0.00 | 40 | 1016.3 |
| 20260501200003 | 50 | 267 | 3.5 | 7.8 | 0.00 | 0.00 | 0.00 | 45 | 1016.5 |
| 20260501195503 | 50 | 280 | 3.5 | 7.0 | 0.00 | 0.00 | 0.00 | 37 | 1016.6 |
| 20260501195003 | 51 | 287 | 2.6 | 7.0 | 0.00 | 0.00 | 0.00 | 37 | 1016.6 |
| 20260501194503 | 50 | 293 | 3.5 | 10.4 | 0.00 | 0.00 | 0.00 | 40 | 1016.6 |
| 20260501194003 | 49 | 298 | 5.2 | 10.4 | 0.00 | 0.00 | 0.00 | 38 | 1016.6 |
| 20260501193503 | 51 | 316 | 3.5 | 8.7 | 0.00 | 0.00 | 0.00 | 35 | 1016.6 |
| 20260501193003 | 52 | 313 | 1.7 | 4.3 | 0.00 | 0.00 | 0.00 | 40 | 1016.7 |
| 20260501192503 | 51 | 295 | 1.7 | 4.3 | 0.00 | 0.00 | 0.00 | 36 | 1016.7 |
| 20260501192003 | 50 | 295 | 2.6 | 7.8 | 0.00 | 0.00 | 0.00 | 35 | 1016.7 |
| 20260501191717 | 51 | 290 | 2.6 | 7.8 | 0.00 | 0.00 | 0.00 | 36 | 1016.7 |
| 20260501191003 | 51 | 247 | 1.7 | 6.1 | 0.00 | 0.00 | 0.00 | 36 | 1016.7 |
| 20260501190503 | 52 | 280 | 0.9 | 3.5 | 0.00 | 0.00 | 0.00 | 37 | 1016.8 |
| 20260501190003 | 51 | 314 | 1.7 | 7.0 | 0.00 | 0.00 | 0.00 | 38 | 1016.8 |
| 20260501185717 | 50 | 308 | 3.5 | 7.0 | 0.00 | 0.00 | 0.00 | 37 | 1016.9 |
| 20260501185003 | 50 | 310 | 3.5 | 7.0 | 0.00 | 0.00 | 0.00 | 40 | 1016.8 |
| 20260501184503 | 50 | 312 | 2.6 | 7.0 | 0.00 | 0.00 | 0.00 | 40 | 1016.9 |
| 20260501184003 | 51 | 296 | 2.6 | 7.0 | 0.00 | 0.00 | 0.00 | 37 | 1016.9 |
| 20260501183503 | 51 | 295 | 1.7 | 7.0 | 0.00 | 0.00 | 0.00 | 39 | 1017.0 |
| 20260501183003 | 50 | 303 | 1.7 | 4.3 | 0.00 | 0.00 | 0.00 | 36 | 1017.0 |
| 20260501182719 | 50 | 313 | 1.7 | 5.2 | 0.00 | 0.00 | 0.00 | 39 | 1017.0 |
| 20260501182003 | 50 | 291 | 2.6 | 7.0 | 0.00 | 0.00 | 0.00 | 37 | 1017.0 |
| 20260501181503 | 52 | 79 | 1.7 | 6.1 | 0.00 | 0.00 | 0.00 | 35 | 1017.0 |
| 20260501181003 | 52 | 112 | 1.7 | 3.5 | 0.00 | 0.00 | 0.00 | 36 | 1017.1 |